Time;durP1;ratioP1;P1;durP2;ratioP2;P2;SDS_P1;SDS_P2;PMS_P1;PMS_P2;Temp;Humidity;BMP_temperature;BMP_pressure;BME280_temperature;BME280_humidity;BME280_pressure;Samples;Min_cycle;Max_cycle;Signal;HPM_P1;HPM_P2
2021/09/14 00:00:52;;;;;;;23.08;15.73;;;;;;;;;;5035596;28;20191;-87
2021/09/14 00:03:18;;;;;;;23.88;15.48;;;14.50;99.90;;;;;;5034951;28;20231;-88
2021/09/14 00:05:44;;;;;;;24.73;16.38;;;14.70;99.90;;;;;;5035323;28;20184;-88
2021/09/14 00:08:10;;;;;;;23.02;15.77;;;;;;;;;;5036262;28;20641;-86
2021/09/14 00:10:36;;;;;;;22.27;15.50;;;14.50;99.90;;;;;;5036257;28;20652;-88
2021/09/14 00:13:02;;;;;;;25.45;15.23;;;;;;;;;;5018797;28;20196;-88
2021/09/14 00:15:28;;;;;;;21.48;15.50;;;14.50;99.90;;;;;;5018384;28;20570;-88
2021/09/14 00:17:54;;;;;;;24.67;15.38;;;;;;;;;;5034906;28;20181;-88
2021/09/14 00:20:19;;;;;;;22.38;16.83;;;14.30;99.90;;;;;;5034666;28;20185;-88
2021/09/14 00:22:45;;;;;;;28.00;16.63;;;;;;;;;;5034708;28;20591;-89
2021/09/14 00:25:11;;;;;;;26.80;17.00;;;14.50;99.90;;;;;;5035866;28;20173;-89
2021/09/14 00:27:37;;;;;;;22.92;15.75;;;;;;;;;;5034334;28;20185;-90
2021/09/14 00:30:04;;;;;;;26.42;16.70;;;14.40;99.90;;;;;;5036044;28;20314;-89
2021/09/14 00:32:30;;;;;;;22.65;16.10;;;;;;;;;;5034348;28;20192;-86
2021/09/14 00:34:55;;;;;;;24.10;16.40;;;14.30;99.90;;;;;;5036001;28;20197;-89
2021/09/14 00:37:21;;;;;;;24.45;17.52;;;;;;;;;;5035597;28;20176;-89
2021/09/14 00:39:47;;;;;;;22.42;16.45;;;14.60;99.90;;;;;;5033598;28;20537;-87
2021/09/14 00:42:13;;;;;;;24.70;16.30;;;;;;;;;;5035491;28;20177;-89
2021/09/14 00:44:39;;;;;;;25.48;16.90;;;14.20;99.90;;;;;;5017807;28;20187;-88
2021/09/14 00:47:05;;;;;;;28.92;17.90;;;;;;;;;;5035761;28;20537;-89
2021/09/14 00:49:31;;;;;;;27.17;18.15;;;14.10;99.90;;;;;;5017596;28;20204;-89
2021/09/14 00:51:57;;;;;;;29.42;20.20;;;;;;;;;;5035363;28;20212;-89
2021/09/14 00:54:23;;;;;;;33.25;19.17;;;13.80;99.90;;;;;;5034042;28;20235;-87
2021/09/14 00:56:49;;;;;;;27.98;18.95;;;13.70;99.90;;;;;;5034239;28;20208;-86
2021/09/14 00:59:15;;;;;;;31.05;20.52;;;;;;;;;;5035171;28;20185;-87
2021/09/14 01:01:41;;;;;;;31.48;19.95;;;14.00;99.90;;;;;;5033859;28;20250;-88
2021/09/14 01:04:07;;;;;;;30.73;19.58;;;;;;;;;;5035435;28;20735;-88
2021/09/14 01:06:33;;;;;;;26.45;18.60;;;13.70;99.90;;;;;;5034762;28;20223;-89
2021/09/14 01:09:02;;;;;;;28.67;19.35;;;13.70;99.90;;;;;;5035442;28;20251;-88
2021/09/14 01:11:29;;;;;;;27.85;18.92;;;14.20;99.90;;;;;;5033639;28;20227;-86
2021/09/14 01:14:05;;;;;;;29.75;19.08;;;13.90;99.90;;;;;;5034172;28;20699;-86
2021/09/14 01:16:33;;;;;;;31.25;19.65;;;13.50;99.90;;;;;;5035038;28;20318;-87
2021/09/14 01:19:00;;;;;;;30.42;19.42;;;13.50;99.90;;;;;;5035073;28;20180;-86
2021/09/14 01:21:28;;;;;;;30.17;20.40;;;13.70;99.90;;;;;;5034602;28;20177;-87
2021/09/14 01:23:53;;;;;;;30.60;19.85;;;13.20;99.90;;;;;;5033933;28;20644;-88
2021/09/14 01:26:19;;;;;;;30.75;20.25;;;;;;;;;;5000276;28;20184;-85
2021/09/14 01:28:45;;;;;;;28.02;18.65;;;13.40;99.90;;;;;;5034896;28;20181;-87
2021/09/14 01:31:11;;;;;;;27.25;19.33;;;;;;;;;;5034733;28;20183;-87
2021/09/14 01:33:37;;;;;;;31.52;20.13;;;13.20;99.90;;;;;;5033006;28;20207;-87
2021/09/14 01:36:03;;;;;;;36.95;20.27;;;;;;;;;;5033467;28;20668;-87
2021/09/14 01:38:28;;;;;;;32.45;20.25;;;13.60;99.90;;;;;;5034640;28;20192;-87
2021/09/14 01:40:54;;;;;;;33.65;20.83;;;;;;;;;;5033546;28;20180;-87
2021/09/14 01:43:21;;;;;;;29.13;20.10;;;;;;;;;;5033384;28;20188;-85
2021/09/14 01:45:46;;;;;;;32.60;20.30;;;13.40;99.90;;;;;;5034530;28;20263;-86
2021/09/14 01:48:12;;;;;;;33.30;19.58;;;;;;;;;;5034570;28;20264;-87
2021/09/14 01:50:39;;;;;;;34.88;20.52;;;;;;;;;;5032842;28;20276;-86
2021/09/14 01:53:05;;;;;;;33.67;20.23;;;13.00;99.90;;;;;;5034540;28;20181;-87
2021/09/14 01:55:32;;;;;;;30.60;20.58;;;;;;;;;;5033983;28;20219;-87
2021/09/14 01:57:58;;;;;;;34.10;21.20;;;13.40;99.90;;;;;;5034605;28;20177;-87
2021/09/14 02:00:27;;;;;;;27.63;18.92;;;13.40;99.90;;;;;;5032891;28;20187;-86
2021/09/14 02:33:50;;;;;;;34.58;21.33;;;13.50;99.90;;;;;;5033593;28;20645;-88
2021/09/14 02:41:38;;;;;;;33.40;22.02;;;;;;;;;;5033331;28;20309;-87
2021/09/14 02:43:52;;;;;;;33.35;20.40;;;13.50;99.90;;;;;;5032344;28;20306;-88
2021/09/14 02:59:58;;;;;;;32.45;21.42;;;13.80;99.90;;;;;;5033451;28;20184;-87
2021/09/14 03:02:24;;;;;;;29.50;20.48;;;;;;;;;;5015125;28;20587;-87
2021/09/14 03:04:50;;;;;;;34.95;19.70;;;13.00;99.90;;;;;;5033377;28;20183;-87
2021/09/14 03:07:16;;;;;;;37.90;20.92;;;;;;;;;;5033429;28;20177;-87
2021/09/14 03:09:42;;;;;;;34.28;20.17;;;;;;;;;;5032047;28;20257;-87
2021/09/14 03:12:08;;;;;;;35.35;21.45;;;13.80;99.90;;;;;;5032257;28;20180;-87
2021/09/14 03:14:34;;;;;;;36.42;20.95;;;;;;;;;;5042969;28;20187;-86
2021/09/14 03:16:59;;;;;;;34.03;21.60;;;13.30;99.90;;;;;;5053984;28;20232;-88
2021/09/14 03:19:25;;;;;;;37.10;22.83;;;;;;;;;;5054072;28;20211;-88
2021/09/14 03:21:51;;;;;;;37.38;24.42;;;13.10;99.90;;;;;;5053740;28;20177;-88
2021/09/14 03:24:17;;;;;;;38.60;23.85;;;;;;;;;;5054836;28;20180;-88
2021/09/14 03:26:43;;;;;;;38.42;24.33;;;13.10;99.90;;;;;;5034990;28;20196;-88
2021/09/14 03:29:08;;;;;;;38.95;23.75;;;13.30;99.90;;;;;;5031830;28;20656;-87
2021/09/14 03:31:34;;;;;;;42.95;25.33;;;13.20;99.90;;;;;;5031464;28;20189;-88
2021/09/14 03:34:00;;;;;;;41.80;24.65;;;13.20;99.90;;;;;;5031782;28;20219;-88
2021/09/14 03:36:26;;;;;;;45.25;25.35;;;13.30;99.90;;;;;;5031645;28;20208;-88
2021/09/14 03:38:51;;;;;;;38.70;24.92;;;13.20;99.90;;;;;;5031447;28;21101;-89
2021/09/14 03:41:17;;;;;;;49.78;26.38;;;;;;;;;;5015131;28;20177;-89
2021/09/14 03:43:43;;;;;;;37.60;24.27;;;13.50;99.90;;;;;;5038244;28;20629;-90
2021/09/14 03:46:09;;;;;;;46.53;24.63;;;13.20;99.90;;;;;;5040531;28;20223;-89
2021/09/14 03:48:35;;;;;;;42.75;23.90;;;;;;;;;;5034346;28;20177;-92
2021/09/14 03:51:01;;;;;;;37.15;24.75;;;13.00;99.90;;;;;;5036742;28;20268;-91
2021/09/14 03:53:26;;;;;;;41.17;25.50;;;13.40;99.90;;;;;;5047595;28;20203;-90
2021/09/14 03:55:52;;;;;;;43.22;24.30;;;13.20;99.90;;;;;;5043509;28;20220;-92
2021/09/14 03:58:17;;;;;;;41.75;25.42;;;13.20;99.90;;;;;;5033335;28;20641;-91
2021/09/14 04:00:50;;;;;;;43.85;24.23;;;;;;;;;;5016163;28;20177;-92
2021/09/14 04:03:18;;;;;;;37.13;22.65;;;13.10;99.90;;;;;;5032790;28;20260;-90
2021/09/14 04:09:12;;;;;;;42.80;24.60;;;13.10;99.90;;;;;;5032140;28;20219;-90
2021/09/14 04:11:14;;;;;;;39.47;23.52;;;13.30;99.90;;;;;;5024779;28;20203;-91
2021/09/14 04:13:39;;;;;;;38.97;23.83;;;12.90;99.90;;;;;;5027793;28;20193;-91
2021/09/14 04:16:05;;;;;;;38.42;23.88;;;12.90;99.90;;;;;;5012884;28;20239;-90
2021/09/14 04:18:31;;;;;;;41.58;23.38;;;;;;;;;;5034935;28;20778;-90
2021/09/14 04:20:57;;;;;;;44.90;23.13;;;;;;;;;;5016819;28;20185;-90
2021/09/14 04:23:23;;;;;;;47.83;24.00;;;13.00;99.90;;;;;;5013160;28;20263;-91
2021/09/14 04:25:49;;;;;;;39.90;23.63;;;;;;;;;;5031685;28;20669;-90
2021/09/14 04:28:15;;;;;;;35.90;23.42;;;;;;;;;;5033048;28;20196;-90
2021/09/14 04:30:40;;;;;;;38.03;23.50;;;13.40;99.90;;;;;;5032124;28;20195;-88
2021/09/14 04:33:08;;;;;;;39.10;23.15;;;;;;;;;;5032442;28;20192;-89
2021/09/14 04:35:35;;;;;;;37.20;22.17;;;12.40;99.90;;;;;;5032885;28;20240;-89
2021/09/14 04:38:00;;;;;;;35.58;22.40;;;12.70;99.90;;;;;;5034519;28;20189;-90
2021/09/14 04:40:26;;;;;;;37.88;22.40;;;12.50;99.90;;;;;;5016234;28;20208;-89
2021/09/14 04:42:52;;;;;;;40.08;23.50;;;;;;;;;;5032254;28;20724;-89
2021/09/14 04:45:18;;;;;;;34.10;23.30;;;13.20;99.90;;;;;;5032505;28;20195;-89
2021/09/14 04:47:44;;;;;;;38.70;23.08;;;;;;;;;;5032926;28;20211;-88
2021/09/14 04:50:10;;;;;;;41.92;22.95;;;12.80;99.90;;;;;;5032751;28;20193;-88
2021/09/14 04:52:36;;;;;;;40.38;23.88;;;12.90;99.90;;;;;;5032537;28;20207;-89
2021/09/14 04:55:02;;;;;;;44.25;22.77;;;;;;;;;;5031596;28;20666;-88
2021/09/14 04:57:27;;;;;;;38.25;22.98;;;12.90;99.90;;;;;;5032428;28;20223;-88
2021/09/14 04:59:53;;;;;;;37.95;24.48;;;;;;;;;;5033046;28;20184;-89
2021/09/14 05:02:19;;;;;;;39.33;23.20;;;;;;;;;;5031963;28;20232;-87
2021/09/14 05:04:45;;;;;;;38.72;21.13;;;;;;;;;;5032504;28;20195;-88
2021/09/14 05:07:11;;;;;;;43.97;25.63;;;;;;;;;;5031586;28;20760;-90
2021/09/14 05:09:37;;;;;;;36.63;23.95;;;;;;;;;;5032815;28;20196;-89
2021/09/14 05:12:03;;;;;;;40.00;21.02;;;;;;;;;;5035938;28;20653;-89
2021/09/14 05:14:29;;;;;;;33.25;20.50;;;;;;;;;;5041124;28;20187;-90
2021/09/14 05:16:56;;;;;;;37.53;21.48;;;;;;;;;;5045649;28;20192;-89
2021/09/14 05:22:08;;;;;;;31.35;20.08;;;13.40;99.90;;;;;;5058922;22;20247;-88
2021/09/14 05:24:34;;;;;;;36.28;21.65;;;;;;;;;;5038682;28;20184;-88
2021/09/14 05:27:01;;;;;;;38.10;21.13;;;;;;;;;;5037857;28;20195;-89
2021/09/14 05:29:27;;;;;;;32.17;21.80;;;;;;;;;;5041563;28;20200;-88
2021/09/14 05:31:55;;;;;;;35.33;20.00;;;13.50;99.90;;;;;;5042740;28;20242;-88
2021/09/14 05:34:21;;;;;;;29.20;20.08;;;13.40;99.90;;;;;;5038296;28;20176;-88
2021/09/14 05:36:47;;;;;;;31.02;20.27;;;13.60;99.90;;;;;;5033053;28;20268;-85
2021/09/14 05:39:14;;;;;;;30.55;19.40;;;;;;;;;;5032695;28;20299;-89
2021/09/14 05:41:40;;;;;;;33.78;20.23;;;13.60;99.90;;;;;;5033625;28;20181;-89
2021/09/14 05:44:05;;;;;;;29.23;20.20;;;13.70;99.90;;;;;;5017053;28;20179;-89
2021/09/14 05:46:31;;;;;;;29.73;19.45;;;14.00;99.90;;;;;;5034008;28;20203;-88
2021/09/14 05:48:57;;;;;;;33.22;22.35;;;13.70;99.90;;;;;;5034153;28;20618;-88
2021/09/14 05:51:23;;;;;;;30.73;19.42;;;13.60;99.90;;;;;;5035618;28;20188;-87
2021/09/14 05:53:49;;;;;;;30.50;20.52;;;;;;;;;;5032608;28;20177;-87
2021/09/14 05:56:15;;;;;;;29.38;18.83;;;;;;;;;;5033315;28;20208;-88
2021/09/14 05:58:41;;;;;;;34.45;20.88;;;13.80;99.90;;;;;;5034420;28;20550;-89
2021/09/14 06:01:08;;;;;;;29.80;18.92;;;;;;;;;;5038676;28;20185;-90
2021/09/14 06:03:33;;;;;;;27.30;18.63;;;13.60;99.90;;;;;;5039721;28;20200;-90
2021/09/14 06:06:00;;;;;;;27.45;18.13;;;;;;;;;;5021287;28;20185;-90
2021/09/14 06:08:26;;;;;;;25.48;17.70;;;14.70;99.90;;;;;;5040296;28;20176;-91
2021/09/14 06:10:52;;;;;;;26.00;17.13;;;14.40;99.90;;;;;;5047840;28;20199;-89
2021/09/14 06:13:18;;;;;;;26.63;17.95;;;;;;;;;;5091446;23;20240;-89
2021/09/14 06:15:44;;;;;;;29.02;17.80;;;;;;;;;;5042555;28;20224;-91
2021/09/14 06:18:10;;;;;;;25.38;17.88;;;14.80;99.90;;;;;;5035666;28;20188;-92
2021/09/14 06:20:36;;;;;;;33.00;17.80;;;;;;;;;;5040858;28;20180;-87
2021/09/14 06:23:02;;;;;;;26.48;17.60;;;14.80;99.90;;;;;;5038059;28;20180;-89
2021/09/14 06:25:28;;;;;;;25.10;17.30;;;;;;;;;;5033884;28;20214;-88
2021/09/14 06:27:53;;;;;;;25.50;16.80;;;15.20;99.90;;;;;;5006674;28;20207;-91
2021/09/14 06:30:19;;;;;;;31.58;18.50;;;15.00;99.90;;;;;;5034423;28;20633;-89
2021/09/14 06:32:45;;;;;;;29.20;17.88;;;15.00;99.90;;;;;;5035273;28;20653;-89
2021/09/14 06:35:10;;;;;;;25.83;18.00;;;15.60;99.90;;;;;;5034402;28;20208;-90
2021/09/14 06:37:37;;;;;;;23.95;16.23;;;15.40;99.90;;;;;;5019314;28;20209;-90
2021/09/14 06:40:04;;;;;;;25.33;15.88;;;15.50;99.90;;;;;;5032297;28;20606;-88
2021/09/14 06:42:29;;;;;;;22.85;15.20;;;14.30;99.90;;;;;;5033241;28;20199;-87
2021/09/14 06:44:57;;;;;;;28.85;14.05;;;15.50;99.90;;;;;;5031819;28;20212;-87
2021/09/14 06:47:22;;;;;;;23.95;14.57;;;15.60;99.90;;;;;;5031886;28;20260;-87
2021/09/14 06:49:48;;;;;;;23.33;14.63;;;15.10;99.90;;;;;;5031019;28;20184;-88
2021/09/14 06:52:14;;;;;;;23.63;14.05;;;;;;;;;;5013277;28;20180;-87
2021/09/14 06:54:40;;;;;;;24.80;14.40;;;15.90;99.90;;;;;;5031931;28;20207;-88
2021/09/14 06:57:05;;;;;;;22.58;14.70;;;15.80;99.90;;;;;;5030764;28;20220;-87
2021/09/14 06:59:33;;;;;;;20.80;14.82;;;;;;;;;;5014734;28;20200;-86
2021/09/14 07:01:59;;;;;;;21.58;14.63;;;;;;;;;;5015911;28;20700;-88
2021/09/14 07:04:24;;;;;;;21.80;14.48;;;16.00;99.90;;;;;;5034218;28;20185;-87
2021/09/14 07:06:51;;;;;;;21.60;13.85;;;;;;;;;;5016349;28;20180;-89
2021/09/14 07:09:18;;;;;;;22.65;13.50;;;16.00;99.90;;;;;;5034227;28;20679;-87
2021/09/14 07:11:44;;;;;;;20.95;12.45;;;16.60;99.90;;;;;;5034136;28;20270;-88
2021/09/14 07:14:10;;;;;;;23.45;13.05;;;;;;;;;;5032461;28;20173;-87
2021/09/14 07:16:36;;;;;;;20.77;13.82;;;16.50;99.90;;;;;;5033011;28;20209;-88
2021/09/14 07:19:01;;;;;;;21.23;13.65;;;16.40;99.90;;;;;;5032517;28;20184;-87
2021/09/14 07:21:27;;;;;;;18.10;12.10;;;;;;;;;;5033605;28;20668;-88
2021/09/14 07:23:53;;;;;;;18.05;12.50;;;16.40;99.90;;;;;;5033266;28;20701;-87
2021/09/14 07:26:19;;;;;;;20.13;12.25;;;;;;;;;;5035180;28;20226;-88
2021/09/14 07:28:45;;;;;;;26.17;12.50;;;;;;;;;;5044081;28;20173;-90
2021/09/14 07:31:12;;;;;;;24.58;12.52;;;;;;;;;;5044882;28;20176;-88
2021/09/14 07:33:38;;;;;;;19.75;12.05;;;17.10;99.90;;;;;;5038623;28;20223;-87
2021/09/14 07:36:08;;;;;;;19.55;11.43;;;16.90;99.90;;;;;;5037080;28;20196;-89
2021/09/14 07:38:39;;;;;;;17.88;10.32;;;16.90;99.90;;;;;;5037190;28;20660;-89
2021/09/14 07:41:05;;;;;;;20.02;10.98;;;;;;;;;;5034477;28;20248;-89
2021/09/14 07:43:30;;;;;;;17.50;11.38;;;17.30;99.90;;;;;;5016005;28;20199;-90
2021/09/14 07:45:56;;;;;;;20.45;10.95;;;;;;;;;;5033396;28;20185;-87
2021/09/14 07:48:22;;;;;;;16.85;12.45;;;;;;;;;;5032614;28;20185;-92
2021/09/14 07:50:48;;;;;;;23.50;11.40;;;17.90;99.90;;;;;;5035913;28;20212;-91
2021/09/14 07:53:14;;;;;;;20.52;10.75;;;;;;;;;;5035363;28;20266;-89
2021/09/14 07:55:40;;;;;;;22.15;13.02;;;;;;;;;;5040851;28;20207;-89
2021/09/14 07:58:06;;;;;;;18.48;12.93;;;17.50;99.90;;;;;;5039930;28;20260;-89
2021/09/14 08:00:32;;;;;;;15.43;10.73;;;;;;;;;;5044977;28;20637;-89
2021/09/14 08:02:59;;;;;;;18.35;10.50;;;17.80;99.90;;;;;;5020548;28;20598;-88
2021/09/14 08:05:26;;;;;;;14.43;9.00;;;17.60;99.90;;;;;;5019830;28;20585;-88
2021/09/14 08:07:53;;;;;;;14.15;8.65;;;18.30;99.90;;;;;;5044796;28;20186;-88
2021/09/14 08:10:19;;;;;;;17.33;10.45;;;;;;;;;;5038050;28;20190;-88
2021/09/14 08:12:45;;;;;;;10.98;8.90;;;;;;;;;;5041178;28;20324;-89
2021/09/14 08:15:11;;;;;;;12.57;8.15;;;18.10;99.90;;;;;;5046773;28;20295;-92
2021/09/14 08:17:37;;;;;;;16.35;8.07;;;17.90;99.90;;;;;;5049005;28;20199;-92
2021/09/14 08:20:04;;;;;;;15.65;8.10;;;18.70;99.90;;;;;;5045927;28;20172;-91
2021/09/14 08:22:29;;;;;;;16.73;9.15;;;18.80;99.90;;;;;;5039862;28;20195;-88
2021/09/14 08:24:56;;;;;;;15.50;9.95;;;;;;;;;;5047010;28;20181;-91
2021/09/14 08:27:22;;;;;;;19.88;10.18;;;18.60;99.90;;;;;;5050665;28;20196;-94
2021/09/14 08:29:48;;;;;;;8.18;7.10;;;18.50;99.90;;;;;;5048623;28;20184;-91
2021/09/14 08:32:14;;;;;;;14.98;7.88;;;;;;;;;;5050182;28;20223;-91
2021/09/14 08:34:40;;;;;;;18.98;9.50;;;18.20;99.90;;;;;;5046892;28;20192;-89
2021/09/14 08:37:05;;;;;;;18.42;10.70;;;18.60;99.90;;;;;;5046660;28;20208;-92
2021/09/14 08:39:31;;;;;;;8.23;5.82;;;;;;;;;;5093642;22;20218;-87
2021/09/14 08:42:08;;;;;;;7.80;5.90;;;;;;;;;;5596210;22;20261;31
2021/09/14 08:44:38;;;;;;;9.63;6.32;;;19.20;99.90;;;;;;5076655;22;20251;-87
2021/09/14 08:47:06;;;;;;;13.80;6.80;;;;;;;;;;5067440;28;20183;-87
2021/09/14 08:49:32;;;;;;;11.13;5.72;;;;;;;;;;5065946;28;20188;-91
2021/09/14 08:51:58;;;;;;;10.60;6.13;;;;;;;;;;5070871;28;20180;-91
2021/09/14 08:54:24;;;;;;;9.10;6.15;;;;;;;;;;5074340;28;20182;-91
2021/09/14 08:56:50;;;;;;;8.90;5.43;;;;;;;;;;5076962;28;20686;-92
2021/09/14 08:59:31;;;;;;;7.68;5.25;;;19.00;99.90;;;;;;5095076;28;20179;-88
2021/09/14 09:02:04;;;;;;;7.43;4.63;;;19.20;99.90;;;;;;5096138;28;20163;-89
2021/09/14 09:04:30;;;;;;;8.57;5.22;;;;;;;;;;5120972;22;20258;-90
2021/09/14 09:06:56;;;;;;;9.13;4.68;;;;;;;;;;5066608;28;20187;-91
2021/09/14 09:09:23;;;;;;;7.03;4.38;;;20.00;99.90;;;;;;5050759;28;20677;-90
2021/09/14 09:11:58;;;;;;;8.32;4.43;;;19.90;99.90;;;;;;5062080;28;20538;-91
2021/09/14 09:14:45;;;;;;;13.25;5.28;;;19.90;99.90;;;;;;5062160;28;20200;-89
2021/09/14 09:17:15;;;;;;;6.03;3.78;;;19.90;99.90;;;;;;5048571;28;20200;-92
2021/09/14 09:19:54;;;;;;;7.70;4.32;;;19.80;99.90;;;;;;5046423;28;20176;-93
2021/09/14 09:22:22;;;;;;;6.60;4.47;;;19.50;99.90;;;;;;5061904;28;20187;-91
2021/09/14 09:24:51;;;;;;;7.32;4.68;;;19.40;99.90;;;;;;5047971;28;20172;-91
2021/09/14 09:27:22;;;;;;;9.25;4.68;;;19.40;99.90;;;;;;5047159;28;20164;-89
2021/09/14 09:30:06;;;;;;;7.63;4.00;;;19.10;99.90;;;;;;5061193;28;20195;-92
2021/09/14 09:32:49;;;;;;;10.20;3.85;;;18.90;99.90;;;;;;5061249;28;20221;-90
2021/09/14 09:35:27;;;;;;;4.95;3.72;;;19.00;99.90;;;;;;5047165;28;20177;-89
2021/09/14 09:37:54;;;;;;;5.07;3.80;;;18.90;99.90;;;;;;5047249;28;20169;-91
2021/09/14 09:40:33;;;;;;;6.50;3.10;;;19.10;99.90;;;;;;5080727;23;20258;-89
2021/09/14 09:43:07;;;;;;;6.38;3.00;;;19.00;99.90;;;;;;5064882;28;20206;-90
2021/09/14 09:45:39;;;;;;;3.65;2.30;;;19.00;99.90;;;;;;5067709;28;20164;-90
2021/09/14 09:48:06;;;;;;;4.30;2.80;;;19.50;99.90;;;;;;5328285;22;20243;-93
2021/09/14 09:50:32;;;;;;;4.55;2.90;;;;;;;;;;5401022;22;20253;-91
2021/09/14 09:53:02;;;;;;;4.97;3.17;;;20.10;99.90;;;;;;5309697;22;21326;-91
2021/09/14 09:55:28;;;;;;;6.10;2.75;;;;;;;;;;5068026;28;20183;-90
2021/09/14 09:57:55;;;;;;;6.78;2.40;;;;;;;;;;5069691;28;20274;-92
2021/09/14 10:00:21;;;;;;;7.10;2.33;;;;;;;;;;5069524;28;20509;-92
2021/09/14 10:03:01;;;;;;;5.07;2.97;;;20.40;99.90;;;;;;5068011;28;20200;-90
2021/09/14 10:05:34;;;;;;;5.38;2.80;;;20.20;99.90;;;;;;5073042;28;20163;-89
2021/09/14 10:08:15;;;;;;;9.90;2.80;;;20.50;99.90;;;;;;5082020;28;20242;-90
2021/09/14 10:10:42;;;;;;;2.63;2.42;;;20.00;99.90;;;;;;5079619;28;20178;-90
2021/09/14 10:13:10;;;;;;;3.33;2.65;;;20.00;99.90;;;;;;5082807;28;20183;-88
2021/09/14 10:15:44;;;;;;;6.60;2.50;;;20.20;99.90;;;;;;5083418;28;20203;-90
2021/09/14 10:18:11;;;;;;;4.97;2.63;;;19.50;99.90;;;;;;5086332;28;20182;-91
2021/09/14 10:20:41;;;;;;;6.35;2.63;;;19.90;99.90;;;;;;5083253;28;20194;-90
2021/09/14 10:23:15;;;;;;;5.95;2.55;;;20.40;99.90;;;;;;5082147;28;20229;-87
2021/09/14 10:25:45;;;;;;;3.13;2.17;;;;;;;;;;5079764;28;20173;-89
2021/09/14 10:28:13;;;;;;;7.55;2.78;;;19.70;99.90;;;;;;5082959;28;20179;-90
2021/09/14 10:30:40;;;;;;;3.35;2.53;;;20.40;99.90;;;;;;5088724;28;20171;-94
2021/09/14 10:33:06;;;;;;;4.47;2.63;;;;;;;;;;5087203;28;20171;-92
2021/09/14 10:35:35;;;;;;;3.25;2.50;;;19.70;99.90;;;;;;5080906;28;20352;-91
2021/09/14 10:38:05;;;;;;;6.97;3.28;;;20.60;99.90;;;;;;5071995;28;20182;-91
2021/09/14 10:43:29;;;;;;;5.32;2.90;;;20.30;99.90;;;;;;5127175;22;20274;-92
2021/09/14 10:45:59;;;;;;;5.97;2.60;;;20.30;99.90;;;;;;5073050;28;20183;-90
2021/09/14 10:48:35;;;;;;;3.42;2.30;;;20.30;99.90;;;;;;5090551;28;20179;-92
2021/09/14 10:51:12;;;;;;;6.22;2.88;;;20.30;99.90;;;;;;5082863;28;20193;-92
2021/09/14 10:53:39;;;;;;;4.45;2.00;;;20.30;99.90;;;;;;5079663;28;20175;-89
2021/09/14 10:58:43;;;;;;;4.55;2.88;;;20.30;99.90;;;;;;5593351;22;20239;-91
2021/09/14 11:01:10;;;;;;;3.53;2.38;;;20.60;99.90;;;;;;5128784;22;20306;-90
2021/09/14 11:03:36;;;;;;;5.32;2.40;;;20.50;99.90;;;;;;5089769;28;20179;-90
2021/09/14 11:06:02;;;;;;;4.65;2.33;;;20.20;99.90;;;;;;5095727;28;20193;-88
2021/09/14 11:08:27;;;;;;;5.72;3.58;;;20.50;99.90;;;;;;5080592;28;20183;-90
2021/09/14 11:10:59;;;;;;;10.45;2.85;;;20.40;99.90;;;;;;5075162;28;20194;-86
2021/09/14 11:13:29;;;;;;;3.42;2.25;;;20.00;99.90;;;;;;5070689;28;20172;-89
2021/09/14 11:15:58;;;;;;;8.25;2.85;;;19.70;99.90;;;;;;5073085;28;20199;-93
2021/09/14 11:18:25;;;;;;;7.57;2.70;;;19.90;99.90;;;;;;5074669;28;20183;-92
2021/09/14 11:20:53;;;;;;;5.50;2.30;;;19.90;99.90;;;;;;5069738;28;20179;-89
2021/09/14 11:23:24;;;;;;;6.82;3.05;;;19.90;99.90;;;;;;5068547;28;20172;-89
2021/09/14 11:25:51;;;;;;;8.82;2.70;;;19.80;99.90;;;;;;5075374;28;20243;-94
2021/09/14 11:28:19;;;;;;;15.90;2.90;;;19.60;99.90;;;;;;5070725;28;20182;-92
2021/09/14 11:31:06;;;;;;;10.50;2.97;;;20.10;99.90;;;;;;5071681;28;20186;-91
2021/09/14 11:33:32;;;;;;;4.97;2.42;;;20.40;99.90;;;;;;5333606;22;20643;-91
2021/09/14 11:43:46;;;;;;;9.75;3.20;;;;;;;;;;5675582;22;20247;-95
2021/09/14 11:46:19;;;;;;;5.72;2.85;;;20.80;99.90;;;;;;5072902;28;20184;-95
2021/09/14 11:48:57;;;;;;;8.98;2.60;;;21.00;99.90;;;;;;5294140;22;20226;-90
2021/09/14 11:54:14;;;;;;;6.05;1.90;;;21.10;99.90;;;;;;5091582;22;20225;-91
2021/09/14 11:56:40;;;;;;;5.13;2.38;;;;;;;;;;5043357;28;20278;-93
2021/09/14 11:59:17;;;;;;;5.18;2.33;;;20.80;99.90;;;;;;5213746;23;20242;-96
2021/09/14 12:01:58;;;;;;;5.00;2.10;;;20.70;99.90;;;;;;5640643;22;20245;31
2021/09/14 12:07:00;;;;;;;5.68;2.50;;;20.60;99.90;;;;;;5342138;22;20255;-94
2021/09/14 12:09:29;;;;;;;2.58;2.15;;;20.40;99.90;;;;;;5041277;28;20270;-86
2021/09/14 12:14:30;;;;;;;5.75;2.33;;;;;;;;;;5203243;22;20231;-93
2021/09/14 12:16:59;;;;;;;5.07;2.05;;;20.20;99.90;;;;;;5115107;22;20223;-91
2021/09/14 12:19:32;;;;;;;4.47;2.20;;;20.10;99.90;;;;;;5064444;28;20181;-89
2021/09/14 12:21:59;;;;;;;4.05;2.33;;;;;;;;;;5223618;22;20260;-96
2021/09/14 12:27:01;;;;;;;5.90;2.20;;;;;;;;;;5288628;22;20298;-89
2021/09/14 12:29:27;;;;;;;10.55;2.60;;;19.90;99.90;;;;;;5054080;28;20198;-87
2021/09/14 12:31:53;;;;;;;5.10;2.67;;;;;;;;;;5056487;22;20204;-90
2021/09/14 12:34:20;;;;;;;6.47;2.10;;;;;;;;;;5023539;28;20189;-86
2021/09/14 12:36:46;;;;;;;11.88;3.42;;;;;;;;;;5139767;22;20326;-88
2021/09/14 12:41:44;;;;;;;15.75;2.72;;;19.60;99.90;;;;;;5095261;22;20236;-91
2021/09/14 12:44:10;;;;;;;5.35;3.08;;;18.90;99.90;;;;;;5070658;23;20275;-87
2021/09/14 12:46:36;;;;;;;5.15;3.00;;;;;;;;;;5037790;28;20196;-88
2021/09/14 12:49:02;;;;;;;7.88;3.13;;;;;;;;;;5007425;28;20236;-92
2021/09/14 12:51:28;;;;;;;11.00;3.55;;;;;;;;;;5001540;28;20186;-91
2021/09/14 12:53:55;;;;;;;7.22;3.03;;;;;;;;;;5239160;22;20247;-90
2021/09/14 12:56:21;;;;;;;4.97;2.58;;;;;;;;;;5071038;28;20195;-89
2021/09/14 12:58:47;;;;;;;4.25;2.22;;;;;;;;;;5055497;28;20195;-90
2021/09/14 13:01:13;;;;;;;5.57;2.63;;;19.10;99.90;;;;;;5062428;28;20181;-90
2021/09/14 13:03:39;;;;;;;5.75;3.00;;;19.60;99.90;;;;;;5025876;28;20187;-92
2021/09/14 13:06:04;;;;;;;7.22;2.45;;;18.90;99.90;;;;;;5029683;28;20193;-91
2021/09/14 13:08:30;;;;;;;4.15;2.65;;;19.40;99.90;;;;;;5051372;28;20177;-88
2021/09/14 13:10:56;;;;;;;13.70;3.08;;;19.60;99.90;;;;;;5052273;28;20181;-89
2021/09/14 13:16:12;;;;;;;5.78;2.72;;;20.00;99.90;;;;;;5054644;28;20223;-89
2021/09/14 13:18:43;;;;;;;5.13;3.05;;;19.70;99.90;;;;;;5053425;28;20164;-88
2021/09/14 13:21:10;;;;;;;6.03;3.22;;;19.80;99.90;;;;;;5069078;28;20180;-90
2021/09/14 13:23:37;;;;;;;4.72;2.75;;;19.60;99.90;;;;;;5054113;28;20186;-92
2021/09/14 13:26:04;;;;;;;10.15;3.03;;;20.10;99.90;;;;;;5059716;28;20191;-92
2021/09/14 13:28:30;;;;;;;7.40;3.08;;;20.10;99.90;;;;;;5125054;22;20272;-89
2021/09/14 13:33:29;;;;;;;5.35;3.00;;;20.00;99.90;;;;;;5037646;28;20217;-91
2021/09/14 13:38:31;;;;;;;6.80;3.50;;;19.90;99.90;;;;;;5032769;28;20200;-92
2021/09/14 13:41:07;;;;;;;11.25;3.45;;;19.90;99.90;;;;;;5001294;28;20181;-91
2021/09/14 13:43:36;;;;;;;5.38;3.25;;;19.80;99.90;;;;;;5018657;28;20161;-85
2021/09/14 13:46:13;;;;;;;14.13;9.48;;;19.60;99.90;;;;;;5036232;28;20181;-90
2021/09/14 13:48:39;;;;;;;9.05;3.55;;;19.70;99.90;;;;;;5010723;28;20177;-89
2021/09/14 13:51:06;;;;;;;11.05;3.35;;;20.10;99.90;;;;;;5001115;28;20196;-91
2021/09/14 13:53:32;;;;;;;6.53;3.08;;;20.10;99.90;;;;;;5034370;28;20196;-90
2021/09/14 13:55:58;;;;;;;8.15;3.20;;;;;;;;;;5030300;28;20213;-90
2021/09/14 13:58:24;;;;;;;8.13;3.70;;;19.70;99.90;;;;;;5018537;28;20225;-93
2021/09/14 14:00:50;;;;;;;15.13;3.30;;;;;;;;;;5016560;28;20192;-91
2021/09/14 14:03:16;;;;;;;5.20;3.17;;;20.10;99.90;;;;;;5034958;28;20267;-90
2021/09/14 14:05:42;;;;;;;5.63;2.95;;;;;;;;;;5032158;28;20185;-91
2021/09/14 14:08:07;;;;;;;6.35;2.83;;;19.90;99.90;;;;;;5028897;28;20260;-90
2021/09/14 14:10:33;;;;;;;5.47;3.00;;;20.10;99.90;;;;;;4989073;28;20193;-87
2021/09/14 14:12:59;;;;;;;5.60;2.70;;;20.40;99.90;;;;;;4981723;28;20695;-90
2021/09/14 14:15:25;;;;;;;5.65;2.65;;;;;;;;;;5015460;28;20215;-91
2021/09/14 14:17:51;;;;;;;4.05;2.70;;;20.10;99.90;;;;;;5014842;28;20173;-91
2021/09/14 14:20:17;;;;;;;5.72;3.10;;;;;;;;;;5013244;28;20304;-92
2021/09/14 14:22:42;;;;;;;4.72;2.47;;;20.70;99.90;;;;;;4997721;28;20534;-89
2021/09/14 14:25:08;;;;;;;7.47;3.03;;;20.90;99.90;;;;;;5014710;28;20322;-90
2021/09/14 14:27:34;;;;;;;5.03;2.67;;;20.40;99.90;;;;;;4980810;28;20654;-90
2021/09/14 14:30:01;;;;;;;7.50;3.60;;;;;;;;;;5014226;28;20192;-91
2021/09/14 14:32:27;;;;;;;7.45;2.60;;;;;;;;;;4997123;28;20189;-90
2021/09/14 14:34:53;;;;;;;6.38;2.50;;;;;;;;;;5014377;28;20189;-92
2021/09/14 14:37:19;;;;;;;6.07;2.72;;;;;;;;;;4998093;28;20237;-93
2021/09/14 14:39:44;;;;;;;5.57;2.47;;;20.80;99.90;;;;;;4999948;28;20296;-92
2021/09/14 14:42:10;;;;;;;7.43;2.90;;;20.40;99.90;;;;;;5000561;28;20232;-91